Time;durP1;ratioP1;P1;durP2;ratioP2;P2;SDS_P1;SDS_P2;PMS_P1;PMS_P2;Temp;Humidity;BMP_temperature;BMP_pressure;BME280_temperature;BME280_humidity;BME280_pressure;Samples;Min_cycle;Max_cycle;Signal;HPM_P1;HPM_P2
2023/05/05 00:01:15;;;;;;;;;;;;;;;;;;5000384;28;19929;-75
2023/05/05 00:03:42;;;;;;;;;;;;;;;;;;5001006;28;19929;-75
2023/05/05 00:06:09;;;;;;;;;;;;;;;;;;5000660;28;21337;-75
2023/05/05 00:08:36;;;;;;;;;;;;;;;;;;5000384;28;19929;-75
2023/05/05 00:11:03;;;;;;;;;;;;;;;;;;5000894;28;20650;-75
2023/05/05 00:13:31;;;;;;;;;;;;;;;;;;5001554;28;19929;-75
2023/05/05 00:15:58;;;;;;;;;;;;;;;;;;5001735;28;20028;-75
2023/05/05 00:18:25;;;;;;;;;;;;;;;;;;5000913;28;19925;-75
2023/05/05 00:20:52;;;;;;;;;;;;;;;;;;5014922;28;20603;-74
2023/05/05 00:23:19;;;;;;;;;;;;;;;;;;5023852;28;19924;-74
2023/05/05 00:25:46;;;;;;;;;;;;;;;;;;5023089;28;19929;-74
2023/05/05 00:28:13;;;;;;;;;;;;;;;;;;5021403;28;19929;-75
2023/05/05 00:30:40;;;;;;;;;;;;;;;;;;5020803;28;19929;-74
2023/05/05 00:33:07;;;;;;;;;;;;;;;;;;5002156;28;19929;-74
2023/05/05 00:35:34;;;;;;;;;;;;;;;;;;5018242;28;19932;-74
2023/05/05 00:38:01;;;;;;;;;;;;;;;;;;5011903;28;19929;-74
2023/05/05 00:40:28;;;;;;;;;;;;;;;;;;5015251;28;19936;-74
2023/05/05 00:42:55;;;;;;;;;;;;;;;;;;5013244;28;19929;-74
2023/05/05 00:45:23;;;;;;;;;;;17.00;91.00;;;;;;5022595;28;20000;-75
2023/05/05 00:47:51;;;;;;;;;;;;;;;;;;5000856;28;19929;-74
2023/05/05 00:50:18;;;;;;;;;;;;;;;;;;5000239;28;20012;-75
2023/05/05 00:52:45;;;;;;;;;;;;;;;;;;5015185;28;20284;-75
2023/05/05 00:55:12;;;;;;;;;;;;;;;;;;5000429;28;19929;-75
2023/05/05 00:57:39;;;;;;;;;;;;;;;;;;5015044;28;19929;-75
2023/05/05 01:00:08;;;;;;;;;;;16.60;91.50;;;;;;5014282;28;19929;-75
2023/05/05 01:02:35;;;;;;;;;;;;;;;;;;5016423;28;19975;-75
2023/05/05 01:05:02;;;;;;;;;;;;;;;;;;5000296;28;20112;-74
2023/05/05 01:07:31;;;;;;;;;;;;;;;;;;5000440;28;20008;-75
2023/05/05 01:09:58;;;;;;;;;;;;;;;;;;5014393;28;20209;-75
2023/05/05 01:12:25;;;;;;;;;;;;;;;;;;5015955;28;19934;-78
2023/05/05 01:14:52;;;;;;;;;;;;;;;;;;5011566;28;19937;-80
2023/05/05 01:17:19;;;;;;;;;;;;;;;;;;5020743;28;19947;-74
2023/05/05 01:19:46;;;;;;;;;;;;;;;;;;5040405;28;19963;-73
2023/05/05 01:22:13;;;;;;;;;;;;;;;;;;5024326;28;19963;-73
2023/05/05 01:24:40;;;;;;;;;;;;;;;;;;5013926;28;19930;-74
2023/05/05 01:27:08;;;;;;;;;;;;;;;;;;4997429;28;21084;-74
2023/05/05 01:29:35;;;;;;;;;;;;;;;;;;4991188;28;20217;-75
2023/05/05 01:32:02;;;;;;;;;;;;;;;;;;4994888;28;19936;-75
2023/05/05 01:34:29;;;;;;;;;;;;;;;;;;4998033;28;20035;-75
2023/05/05 01:36:59;;;;;;;;;;;;;;;;;;4998540;28;19929;-75
2023/05/05 01:39:26;;;;;;;;;;;;;;;;;;4994867;28;19936;-75
2023/05/05 01:41:57;;;;;;;;;;;15.50;93.50;;;;;;4999494;28;19929;-75
2023/05/05 01:44:24;;;;;;;;;;;;;;;;;;4999076;28;20036;-75
2023/05/05 01:46:51;;;;;;;;;;;;;;;;;;4998873;28;20028;-75
2023/05/05 01:49:18;;;;;;;;;;;;;;;;;;5014389;28;20412;-76
2023/05/05 01:51:46;;;;;;;;;;;;;;;;;;5000749;28;19987;-77
2023/05/05 01:54:13;;;;;;;;;;;;;;;;;;5002002;28;19929;-78
2023/05/05 01:56:40;;;;;;;;;;;;;;;;;;5018317;28;20859;-78
2023/05/05 01:59:08;;;;;;;;;;;15.20;94.20;;;;;;5018015;28;19929;-77
2023/05/05 02:01:35;;;;;;;;;;;;;;;;;;5020139;28;20448;-78
2023/05/05 02:04:02;;;;;;;;;;;;;;;;;;5002798;28;19937;-77
2023/05/05 02:06:31;;;;;;;;;;;;;;;;;;5015550;28;20383;-79
2023/05/05 02:08:58;;;;;;;;;;;;;;;;;;5000487;28;19929;-78
2023/05/05 02:11:25;;;;;;;;;;;;;;;;;;5001510;28;20004;-78
2023/05/05 02:13:52;;;;;;;;;;;;;;;;;;4999493;28;19980;-76
2023/05/05 02:16:19;;;;;;;;;;;;;;;;;;5001030;28;19929;-76
2023/05/05 02:18:46;;;;;;;;;;;;;;;;;;4998117;28;20414;-75
2023/05/05 02:21:13;;;;;;;;;;;;;;;;;;4998807;28;20334;-76
2023/05/05 02:23:40;;;;;;;;;;;;;;;;;;4997487;28;20024;-76
2023/05/05 02:26:07;;;;;;;;;;;;;;;;;;4999725;28;19929;-75
2023/05/05 02:28:34;;;;;;;;;;;;;;;;;;4998346;28;19932;-76
2023/05/05 02:31:01;;;;;;;;;;;;;;;;;;5013546;28;19933;-76
2023/05/05 02:33:29;;;;;;;;;;;;;;;;;;4998903;28;20362;-76
2023/05/05 02:35:56;;;;;;;;;;;;;;;;;;4998066;28;19984;-76
2023/05/05 02:38:25;;;;;;;;;;;;;;;;;;5011843;28;19936;-76
2023/05/05 02:40:53;;;;;;;;;;;;;;;;;;5013222;28;19952;-75
2023/05/05 02:43:20;;;;;;;;;;;;;;;;;;5013695;28;20109;-75
2023/05/05 02:45:47;;;;;;;;;;;;;;;;;;5022840;28;19936;-76
2023/05/05 02:48:15;;;;;;;;;;;;;;;;;;5007411;28;20303;-76
2023/05/05 02:50:42;;;;;;;;;;;;;;;;;;5024763;28;20667;-75
2023/05/05 02:53:33;;;;;;;;;;;;;;;;;;5001199;28;20907;-76
2023/05/05 02:56:00;;;;;;;;;;;;;;;;;;5016112;28;19929;-78
2023/05/05 02:58:31;;;;;;;;;;;;;;;;;;4998533;28;20060;-78
2023/05/05 03:00:59;;;;;;;;;;;;;;;;;;5019693;28;19972;-79
2023/05/05 03:03:26;;;;;;;;;;;;;;;;;;5028055;28;19929;-78
2023/05/05 03:05:54;;;;;;;;;;;;;;;;;;5020079;28;19953;-79
2023/05/05 03:08:21;;;;;;;;;;;;;;;;;;5037174;28;19929;-77
2023/05/05 03:10:49;;;;;;;;;;;;;;;;;;5019656;28;19936;-79
2023/05/05 03:13:17;;;;;;;;;;;;;;;;;;5036178;28;19968;-78
2023/05/05 03:15:45;;;;;;;;;;;;;;;;;;5019651;28;19992;-75
2023/05/05 03:18:14;;;;;;;;;;;;;;;;;;5003400;28;19952;-78
2023/05/05 03:20:43;;;;;;;;;;;;;;;;;;5017470;28;19925;-79
2023/05/05 03:23:13;;;;;;;;;;;;;;;;;;5017514;28;19921;-78
2023/05/05 03:25:41;;;;;;;;;;;;;;;;;;5016405;28;19933;-77
2023/05/05 03:28:08;;;;;;;;;;;;;;;;;;5009949;28;19984;-79
2023/05/05 03:30:35;;;;;;;;;;;;;;;;;;5015127;28;19940;-78
2023/05/05 03:33:04;;;;;;;;;;;14.20;99.90;;;;;;5032134;28;19940;-77
2023/05/05 03:35:32;;;;;;;;;;;;;;;;;;5023525;28;19935;-79
2023/05/05 03:37:59;;;;;;;;;;;;;;;;;;5005286;28;19955;-77
2023/05/05 03:40:26;;;;;;;;;;;;;;;;;;5003603;28;19933;-77
2023/05/05 03:42:53;;;;;;;;;;;;;;;;;;5002306;28;19940;-77
2023/05/05 03:45:20;;;;;;;;;;;;;;;;;;5003305;28;19930;-78
2023/05/05 03:47:47;;;;;;;;;;;;;;;;;;5004243;28;19971;-80
2023/05/05 03:50:15;;;;;;;;;;;;;;;;;;5004016;28;21011;-77
2023/05/05 03:52:42;;;;;;;;;;;;;;;;;;5019217;28;19929;-78
2023/05/05 03:55:09;;;;;;;;;;;;;;;;;;5020000;28;19936;-77
2023/05/05 03:57:36;;;;;;;;;;;;;;;;;;5019797;28;19930;-78
2023/05/05 04:00:03;;;;;;;;;;;;;;;;;;5017308;28;19921;-77
2023/05/05 04:02:42;;;;;;;;;;;;;;;;;;5004314;28;19932;-77
2023/05/05 04:05:10;;;;;;;;;;;;;;;;;;5021113;28;19937;-77
2023/05/05 04:07:37;;;;;;;;;;;;;;;;;;5005074;28;19932;-77
2023/05/05 04:10:04;;;;;;;;;;;;;;;;;;5009711;28;19925;-77
2023/05/05 04:12:31;;;;;;;;;;;;;;;;;;5012387;28;19968;-78
2023/05/05 04:14:58;;;;;;;;;;;;;;;;;;5024528;22;19929;-79
2023/05/05 04:17:27;;;;;;;;;;;;;;;;;;5013070;28;19922;-79
2023/05/05 04:19:54;;;;;;;;;;;;;;;;;;5013531;28;19933;-78
2023/05/05 04:22:21;;;;;;;;;;;;;;;;;;5012254;28;19922;-79
2023/05/05 04:24:48;;;;;;;;;;;;;;;;;;5012068;28;19929;-79
2023/05/05 04:27:16;;;;;;;;;;;;;;;;;;5013060;28;20539;-79
2023/05/05 04:29:43;;;;;;;;;;;;;;;;;;5011320;28;19925;-79
2023/05/05 04:32:10;;;;;;;;;;;;;;;;;;5012287;28;19933;-79
2023/05/05 04:34:37;;;;;;;;;;;;;;;;;;5012050;28;19931;-79
2023/05/05 04:37:04;;;;;;;;;;;;;;;;;;5013734;28;19929;-79
2023/05/05 04:39:34;;;;;;;;;;;;;;;;;;5012772;28;19975;-79
2023/05/05 04:42:02;;;;;;;;;;;;;;;;;;5014591;28;20036;-79
2023/05/05 04:44:29;;;;;;;;;;;;;;;;;;5015086;28;19925;-79
2023/05/05 04:46:56;;;;;;;;;;;;;;;;;;5015383;28;19921;-79
2023/05/05 04:49:23;;;;;;;;;;;;;;;;;;5016474;28;19925;-78
2023/05/05 04:51:51;;;;;;;;;;;;;;;;;;5015175;28;19979;-77
2023/05/05 04:54:18;;;;;;;;;;;;;;;;;;5015701;28;19925;-79
2023/05/05 04:56:45;;;;;;;;;;;;;;;;;;5016596;28;19948;-79
2023/05/05 04:59:13;;;;;;;;;;;;;;;;;;5016677;28;19957;-79
2023/05/05 05:01:40;;;;;;;;;;;;;;;;;;5016176;28;19921;-80
2023/05/05 05:04:07;;;;;;;;;;;;;;;;;;5015282;28;19989;-79
2023/05/05 05:06:35;;;;;;;;;;;;;;;;;;5015927;28;19925;-78
2023/05/05 05:09:03;;;;;;;;;;;;;;;;;;5014022;28;19922;-78
2023/05/05 05:11:31;;;;;;;;;;;14.40;99.90;;;;;;5015478;28;20297;-79
2023/05/05 05:14:00;;;;;;;;;;;;;;;;;;5013766;28;19968;-79
2023/05/05 05:16:27;;;;;;;;;;;;;;;;;;5024313;28;19921;-80
2023/05/05 05:18:54;;;;;;;;;;;;;;;;;;5034898;28;19921;-79
2023/05/05 05:21:22;;;;;;;;;;;;;;;;;;5033914;28;19925;-79
2023/05/05 05:23:49;;;;;;;;;;;;;;;;;;5034859;28;19925;-80
2023/05/05 05:26:17;;;;;;;;;;;;;;;;;;5033262;28;19936;-79
2023/05/05 05:28:44;;;;;;;;;;;;;;;;;;5027727;28;19921;-82
2023/05/05 05:31:11;;;;;;;;;;;;;;;;;;5025961;28;19925;-80
2023/05/05 05:33:39;;;;;;;;;;;;;;;;;;5021882;28;20233;-81
2023/05/05 05:36:06;;;;;;;;;;;;;;;;;;5024688;28;19986;-80
2023/05/05 05:38:34;;;;;;;;;;;;;;;;;;5025545;28;19925;-82
2023/05/05 05:41:03;;;;;;;;;;;;;;;;;;5023725;28;19933;-82
2023/05/05 05:43:33;;;;;;;;;;;;;;;;;;5023495;28;20346;-79
2023/05/05 05:46:01;;;;;;;;;;;;;;;;;;5023118;28;19947;-81
2023/05/05 05:48:29;;;;;;;;;;;;;;;;;;5026523;28;19925;-81
2023/05/05 05:50:58;;;;;;;;;;;20.90;99.90;;;;;;5026477;28;19928;-81
2023/05/05 05:53:28;;;;;;;;;;;;;;;;;;5029266;28;19925;-81
2023/05/05 05:55:56;;;;;;;;;;;;;;;;;;5018141;28;19925;-80
2023/05/05 05:58:23;;;;;;;;;;;24.00;99.90;;;;;;5021710;28;19916;-80
2023/05/05 06:00:51;;;;;;;;;;;;;;;;;;5025584;28;20040;-82
2023/05/05 06:03:18;;;;;;;;;;;;;;;;;;5027494;28;20067;-80
2023/05/05 06:05:45;;;;;;;;;;;;;;;;;;5019362;28;20024;-77
2023/05/05 06:08:13;;;;;;;;;;;;;;;;;;5011106;28;20037;-78
2023/05/05 06:10:47;;;;;;;;;;;;;;;;;;5011911;28;19929;-78
2023/05/05 06:13:17;;;;;;;;;;;;;;;;;;5011418;28;20012;-78
2023/05/05 06:15:48;;;;;;;;;;;27.60;99.90;;;;;;5011134;28;19921;-77
2023/05/05 06:18:16;;;;;;;;;;;;;;;;;;5011066;28;19979;-77
2023/05/05 06:20:43;;;;;;;;;;;;;;;;;;5023833;28;19944;-77
2023/05/05 06:23:13;;;;;;;;;;;;;;;;;;5020798;28;19926;-79
2023/05/05 06:25:44;;;;;;;;;;;;;;;;;;5021491;28;19948;-79
2023/05/05 06:28:11;;;;;;;;;;;;;;;;;;5023321;28;19991;-79
2023/05/05 06:30:39;;;;;;;;;;;;;;;;;;5023829;28;19944;-80
2023/05/05 06:33:07;;;;;;;;;;;31.20;99.90;;;;;;5020764;28;19925;-79
2023/05/05 06:35:35;;;;;;;;;;;;;;;;;;5022870;28;19925;-78
2023/05/05 06:38:02;;;;;;;;;;;;;;;;;;5021439;28;19964;-79
2023/05/05 06:40:29;;;;;;;;;;;;;;;;;;5020445;28;19932;-78
2023/05/05 06:42:56;;;;;;;;;;;;;;;;;;5021570;28;19933;-79
2023/05/05 06:45:30;;;;;;;;;;;32.80;94.50;;;;;;5023244;28;19915;-79
2023/05/05 06:47:57;;;;;;;;;;;33.00;92.40;;;;;;5026528;28;19913;-80
2023/05/05 06:50:32;;;;;;;;;;;32.80;90.80;;;;;;5027122;28;19921;-79
2023/05/05 06:53:00;;;;;;;;;;;;;;;;;;5027829;28;20341;-80
2023/05/05 06:55:27;;;;;;;;;;;32.40;90.30;;;;;;5024849;28;20040;-79
2023/05/05 06:57:55;;;;;;;;;;;;;;;;;;5025606;28;20228;-80
2023/05/05 07:00:22;;;;;;;;;;;;;;;;;;5014808;28;19918;-79
2023/05/05 07:02:49;;;;;;;;;;;;;;;;;;5027159;28;19909;-79
2023/05/05 07:05:16;;;;;;;;;;;32.10;84.20;;;;;;5015057;28;20000;-78
2023/05/05 07:07:54;;;;;;;;;;;31.70;84.70;;;;;;5019820;28;19936;-79
2023/05/05 07:10:21;;;;;;;;;;;31.10;83.50;;;;;;5013435;28;20105;-79
2023/05/05 07:12:50;;;;;;;;;;;;;;;;;;5015280;28;19925;-79
2023/05/05 07:15:20;;;;;;;;;;;;;;;;;;5017906;28;19971;-80
2023/05/05 07:17:47;;;;;;;;;;;;;;;;;;5024378;28;19932;-80
2023/05/05 07:20:15;;;;;;;;;;;;;;;;;;5039504;28;19997;-80
2023/05/05 07:22:42;;;;;;;;;;;;;;;;;;5039713;28;19929;-80
2023/05/05 07:25:12;;;;;;;;;;;28.60;87.30;;;;;;5020063;28;19921;-81
2023/05/05 07:27:40;;;;;;;;;;;;;;;;;;5022806;28;20427;-79
2023/05/05 07:30:07;;;;;;;;;;;;;;;;;;5017421;28;19953;-80
2023/05/05 07:32:35;;;;;;;;;;;28.00;88.70;;;;;;5018572;28;19929;-79
2023/05/05 07:35:02;;;;;;;;;;;;;;;;;;5019627;28;19929;-80
2023/05/05 07:37:30;;;;;;;;;;;;;;;;;;5018249;28;20483;-79
2023/05/05 07:39:56;;;;;;;;;;;27.20;89.40;;;;;;5017862;28;19972;-80
2023/05/05 07:42:24;;;;;;;;;;;;;;;;;;5019877;28;19926;-80
2023/05/05 07:44:52;;;;;;;;;;;27.10;90.70;;;;;;5019332;28;19909;-80
2023/05/05 07:47:20;;;;;;;;;;;;;;;;;;5017050;28;19949;-80
2023/05/05 07:49:47;;;;;;;;;;;26.10;90.70;;;;;;5019195;28;19945;-79
2023/05/05 07:52:14;;;;;;;;;;;;;;;;;;5017665;28;19980;-79
2023/05/05 07:54:44;;;;;;;;;;;;;;;;;;5018277;28;19926;-79
2023/05/05 07:57:11;;;;;;;;;;;;;;;;;;5014947;28;19928;-79
2023/05/05 07:59:42;;;;;;;;;;;;;;;;;;5017345;28;19933;-79
2023/05/05 08:02:11;;;;;;;;;;;;;;;;;;5014819;28;20324;-79
2023/05/05 08:04:39;;;;;;;;;;;;;;;;;;5016536;28;19926;-79
2023/05/05 08:07:07;;;;;;;;;;;;;;;;;;5015027;28;19964;-79
2023/05/05 08:09:36;;;;;;;;;;;29.50;91.50;;;;;;5018518;28;20008;-79
2023/05/05 08:12:03;;;;;;;;;;;;;;;;;;5019059;28;19925;-79
2023/05/05 08:14:30;;;;;;;;;;;;;;;;;;5018556;28;19925;-79
2023/05/05 08:16:57;;;;;;;;;;;;;;;;;;5021329;28;20260;-78
2023/05/05 08:19:25;;;;;;;;;;;;;;;;;;5007539;28;19926;-78
2023/05/05 08:21:52;;;;;;;;;;;29.70;87.50;;;;;;5014982;28;19925;-78
2023/05/05 08:24:20;;;;;;;;;;;;;;;;;;5019245;28;19909;-78
2023/05/05 08:26:49;;;;;;;;;;;29.60;89.10;;;;;;5018259;28;20223;-78
2023/05/05 08:29:17;;;;;;;;;;;29.80;89.20;;;;;;5007744;28;19921;-80
2023/05/05 08:31:44;;;;;;;;;;;30.30;89.20;;;;;;5007542;28;20021;-78
2023/05/05 08:34:14;;;;;;;;;;;;;;;;;;5008549;28;19980;-78
2023/05/05 08:36:42;;;;;;;;;;;;;;;;;;5008469;28;19936;-79
2023/05/05 08:39:11;;;;;;;;;;;31.10;88.10;;;;;;5008286;28;19922;-79
2023/05/05 08:41:38;;;;;;;;;;;;;;;;;;5028660;28;19928;-79
2023/05/05 08:44:05;;;;;;;;;;;;;;;;;;5028147;28;19988;-79
2023/05/05 08:46:32;;;;;;;;;;;;;;;;;;5027359;28;19925;-79
2023/05/05 08:49:00;;;;;;;;;;;;;;;;;;5027982;28;19921;-79
2023/05/05 08:51:31;;;;;;;;;;;31.40;82.60;;;;;;5027795;28;19926;-79
2023/05/05 08:54:01;;;;;;;;;;;;;;;;;;5027527;28;19948;-79
2023/05/05 08:56:33;;;;;;;;;;;30.90;85.10;;;;;;5028883;28;19948;-80
2023/05/05 08:59:01;;;;;;;;;;;;;;;;;;5030010;28;19922;-78
2023/05/05 09:01:28;;;;;;;;;;;32.20;83.70;;;;;;5024525;28;19925;-80
2023/05/05 09:03:57;;;;;;;;;;;31.70;81.60;;;;;;5029609;28;19909;-81
2023/05/05 09:06:26;;;;;;;;;;;;;;;;;;5026118;28;19952;-79
2023/05/05 09:08:54;;;;;;;;;;;31.10;81.40;;;;;;5026108;28;19988;-79
2023/05/05 09:11:22;;;;;;;;;;;;;;;;;;5024039;28;19995;-78
2023/05/05 09:13:49;;;;;;;;;;;;;;;;;;5039658;28;19936;-78
2023/05/05 09:16:17;;;;;;;;;;;30.50;83.20;;;;;;5042274;28;19921;-79
2023/05/05 09:18:44;;;;;;;;;;;;;;;;;;5042858;28;19933;-78
2023/05/05 09:21:11;;;;;;;;;;;;;;;;;;5040466;28;19959;-79
2023/05/05 09:23:38;;;;;;;;;;;;;;;;;;5035474;28;19921;-79
2023/05/05 09:26:07;;;;;;;;;;;;;;;;;;5010216;28;19921;-79
2023/05/05 09:28:35;;;;;;;;;;;;;;;;;;5010109;28;19957;-81
2023/05/05 09:31:02;;;;;;;;;;;;;;;;;;5015577;28;20001;-81
2023/05/05 09:33:30;;;;;;;;;;;;;;;;;;5016769;28;19984;-80
2023/05/05 09:35:57;;;;;;;;;;;;;;;;;;5017814;28;19925;-81
2023/05/05 09:38:24;;;;;;;;;;;;;;;;;;5019586;28;19926;-81
2023/05/05 09:40:52;;;;;;;;;;;;;;;;;;5022534;28;19933;-80
2023/05/05 09:43:19;;;;;;;;;;;;;;;;;;5022577;28;19989;-80
2023/05/05 09:45:47;;;;;;;;;;;;;;;;;;5021299;28;19917;-82
2023/05/05 09:48:14;;;;;;;;;;;;;;;;;;5020237;28;19925;-82
2023/05/05 09:50:42;;;;;;;;;;;;;;;;;;5021061;28;19941;-80
2023/05/05 09:53:10;;;;;;;;;;;;;;;;;;5012867;28;19925;-79
2023/05/05 09:55:41;;;;;;;;;;;28.00;85.80;;;;;;4996119;28;22215;-81
2023/05/05 09:58:08;;;;;;;;;;;;;;;;;;5009792;28;19929;-80
2023/05/05 10:00:35;;;;;;;;;;;;;;;;;;5011973;28;19925;-81
2023/05/05 10:03:02;;;;;;;;;;;;;;;;;;5009701;28;19930;-81
2023/05/05 10:05:30;;;;;;;;;;;;;;;;;;5012057;28;19926;-80
2023/05/05 10:07:58;;;;;;;;;;;;;;;;;;5007285;28;19940;-80
2023/05/05 10:10:25;;;;;;;;;;;;;;;;;;5013285;28;20364;-81
2023/05/05 10:12:53;;;;;;;;;;;;;;;;;;5013794;28;19930;-81
2023/05/05 10:15:20;;;;;;;;;;;;;;;;;;5010917;28;19953;-81
2023/05/05 10:17:47;;;;;;;;;;;;;;;;;;5010345;28;19968;-81
2023/05/05 10:20:15;;;;;;;;;;;;;;;;;;5007381;28;19941;-80
2023/05/05 10:22:45;;;;;;;;;;;27.50;85.70;;;;;;5008635;28;19930;-81
2023/05/05 10:25:12;;;;;;;;;;;;;;;;;;5014269;28;19949;-80
2023/05/05 10:27:40;;;;;;;;;;;;;;;;;;5020290;28;19926;-80
2023/05/05 10:30:07;;;;;;;;;;;;;;;;;;5020018;28;19920;-81
2023/05/05 10:32:34;;;;;;;;;;;;;;;;;;5016524;28;19938;-81
2023/05/05 10:35:01;;;;;;;;;;;;;;;;;;5029370;23;19932;-81
2023/05/05 10:37:28;;;;;;;;;;;;;;;;;;5029233;28;19929;-79
2023/05/05 10:39:56;;;;;;;;;;;;;;;;;;5029772;28;19995;-79
2023/05/05 10:42:23;;;;;;;;;;;;;;;;;;5030124;28;19929;-79
2023/05/05 10:44:50;;;;;;;;;;;;;;;;;;5040223;28;19936;-80
2023/05/05 10:47:17;;;;;;;;;;;;;;;;;;5026548;28;19929;-78
2023/05/05 10:49:44;;;;;;;;;;;;;;;;;;5029806;28;19926;-79
2023/05/05 10:52:11;;;;;;;;;;;;;;;;;;5029392;28;19929;-78
2023/05/05 10:54:38;;;;;;;;;;;;;;;;;;5030523;28;19925;-76
2023/05/05 10:57:05;;;;;;;;;;;;;;;;;;5029927;28;19937;-76
2023/05/05 10:59:32;;;;;;;;;;;;;;;;;;5023834;28;21383;-76
2023/05/05 11:01:59;;;;;;;;;;;;;;;;;;5021531;28;19962;-76
2023/05/05 11:04:26;;;;;;;;;;;;;;;;;;5025894;28;19940;-76
2023/05/05 11:06:53;;;;;;;;;;;;;;;;;;5029882;28;19929;-76
2023/05/05 11:09:20;;;;;;;;;;;;;;;;;;5017790;28;19933;-76
2023/05/05 11:11:47;;;;;;;;;;;;;;;;;;5023027;28;19937;-77
2023/05/05 11:14:16;;;;;;;;;;;;;;;;;;5016471;28;19926;-76
2023/05/05 11:16:43;;;;;;;;;;;;;;;;;;5023111;28;20036;-75
2023/05/05 11:19:10;;;;;;;;;;;;;;;;;;5033478;28;19929;-76
2023/05/05 11:21:37;;;;;;;;;;;;;;;;;;5040893;28;19936;-76
2023/05/05 11:26:53;;;;;;;;;;;;;;;;;;5289622;22;19933;-76
2023/05/05 11:29:20;;;;;;;;;;;;;;;;;;5003988;28;19956;-76
2023/05/05 11:31:47;;;;;;;;;;;;;;;;;;5009336;28;20016;-76
2023/05/05 11:34:14;;;;;;;;;;;;;;;;;;5003314;28;20410;-76
2023/05/05 11:36:41;;;;;;;;;;;;;;;;;;5001833;28;20735;-76
2023/05/05 11:39:09;;;;;;;;;;;;;;;;;;5005422;28;19933;-79
2023/05/05 11:41:36;;;;;;;;;;;;;;;;;;5009002;28;19977;-78
2023/05/05 11:44:04;;;;;;;;;;;;;;;;;;5011193;28;19929;-77
2023/05/05 11:46:31;;;;;;;;;;;;;;;;;;5011303;28;20030;-80
2023/05/05 11:48:58;;;;;;;;;;;;;;;;;;5015360;28;20023;-78
2023/05/05 11:51:25;;;;;;;;;;;;;;;;;;5011243;28;19925;-78
2023/05/05 11:53:52;;;;;;;;;;;;;;;;;;5008856;28;20317;-78
2023/05/05 11:56:21;;;;;;;;;;;21.10;96.30;;;;;;5009095;28;19945;-78
2023/05/05 11:58:48;;;;;;;;;;;;;;;;;;5012644;28;19948;-78
2023/05/05 12:01:15;;;;;;;;;;;;;;;;;;5003735;28;20263;-79
2023/05/05 12:03:44;;;;;;;;;;;;;;;;;;5007644;28;19929;-78
2023/05/05 12:06:11;;;;;;;;;;;;;;;;;;5010833;28;19964;-77
2023/05/05 12:08:38;;;;;;;;;;;;;;;;;;5003810;28;19972;-77
2023/05/05 12:11:05;;;;;;;;;;;;;;;;;;5012665;28;19925;-76
2023/05/05 12:13:32;;;;;;;;;;;;;;;;;;5024634;28;19938;-79
2023/05/05 12:15:59;;;;;;;;;;;;;;;;;;5032483;28;19940;-77
2023/05/05 12:18:26;;;;;;;;;;;;;;;;;;5020991;28;19961;-80
2023/05/05 12:20:53;;;;;;;;;;;;;;;;;;5008770;28;19929;-77
2023/05/05 12:23:20;;;;;;;;;;;;;;;;;;5016484;28;20558;-77
2023/05/05 12:25:47;;;;;;;;;;;;;;;;;;5000578;28;20019;-76
2023/05/05 12:28:14;;;;;;;;;;;;;;;;;;4997482;28;19933;-77
2023/05/05 12:30:41;;;;;;;;;;;;;;;;;;5001863;28;20393;-77
2023/05/05 12:33:08;;;;;;;;;;;;;;;;;;5000866;28;20046;-77
2023/05/05 12:35:35;;;;;;;;;;;;;;;;;;4998779;28;19944;-78
2023/05/05 12:38:02;;;;;;;;;;;;;;;;;;4998892;28;20661;-79
2023/05/05 12:40:29;;;;;;;;;;;;;;;;;;4999256;28;19936;-79
2023/05/05 12:42:58;;;;;;;;;;;;;;;;;;5001448;28;19936;-79
2023/05/05 12:45:25;;;;;;;;;;;;;;;;;;5000799;28;20035;-82
2023/05/05 12:47:52;;;;;;;;;;;;;;;;;;5005996;28;19933;-78
2023/05/05 12:50:19;;;;;;;;;;;;;;;;;;5007980;28;20068;-79
2023/05/05 12:52:47;;;;;;;;;;;22.20;99.90;;;;;;5005597;28;19934;-79
2023/05/05 12:55:15;;;;;;;;;;;;;;;;;;5010256;28;20274;-78
2023/05/05 12:57:42;;;;;;;;;;;;;;;;;;5012142;28;19926;-77
2023/05/05 13:00:09;;;;;;;;;;;;;;;;;;5005951;28;19941;-75
2023/05/05 13:02:36;;;;;;;;;;;;;;;;;;5006851;28;19934;-76
2023/05/05 13:05:03;;;;;;;;;;;;;;;;;;5008688;28;19934;-76
2023/05/05 13:07:31;;;;;;;;;;;;;;;;;;5000874;28;19967;-76
2023/05/05 13:09:58;;;;;;;;;;;;;;;;;;4994746;28;19936;-76
2023/05/05 13:12:25;;;;;;;;;;;;;;;;;;4996464;28;20527;-77
2023/05/05 13:14:52;;;;;;;;;;;;;;;;;;5001564;28;19940;-78
2023/05/05 13:17:19;;;;;;;;;;;;;;;;;;4997035;28;21431;-79
2023/05/05 13:19:46;;;;;;;;;;;;;;;;;;5001495;28;20316;-76
2023/05/05 13:22:13;;;;;;;;;;;;;;;;;;4995858;28;20021;-77
2023/05/05 13:24:40;;;;;;;;;;;;;;;;;;4996896;28;20501;-77
2023/05/05 13:27:07;;;;;;;;;;;;;;;;;;5000231;28;19934;-75
2023/05/05 13:29:35;;;;;;;;;;;;;;;;;;5004661;28;19933;-75
2023/05/05 13:32:02;;;;;;;;;;;;;;;;;;4998813;28;19994;-75
2023/05/05 13:37:11;;;;;;;;;;;;;;;;;;5132224;23;19933;-75
2023/05/05 13:39:38;;;;;;;;;;;;;;;;;;5041093;28;19925;-75
2023/05/05 13:42:05;;;;;;;;;;;;;;;;;;5041008;28;19935;-76
2023/05/05 13:44:34;;;;;;;;;;;;;;;;;;5038139;28;19929;-75
2023/05/05 13:47:01;;;;;;;;;;;;;;;;;;5027516;28;19925;-76
2023/05/05 13:49:29;;;;;;;;;;;24.70;99.90;;;;;;5029175;28;19935;-76
2023/05/05 13:51:56;;;;;;;;;;;;;;;;;;5031736;28;20357;-76
2023/05/05 13:54:23;;;;;;;;;;;;;;;;;;5027381;28;19940;-76
2023/05/05 13:56:50;;;;;;;;;;;;;;;;;;5027582;28;19933;-75
2023/05/05 13:59:17;;;;;;;;;;;;;;;;;;5026837;28;19925;-79
2023/05/05 14:01:44;;;;;;;;;;;;;;;;;;5026545;28;19933;-76
2023/05/05 14:04:11;;;;;;;;;;;;;;;;;;5027815;28;20452;-76
2023/05/05 14:06:38;;;;;;;;;;;;;;;;;;5027370;28;19929;-77
2023/05/05 14:09:06;;;;;;;;;;;;;;;;;;5019962;28;19934;-78
2023/05/05 14:11:33;;;;;;;;;;;;;;;;;;5014544;28;19970;-79
2023/05/05 14:14:01;;;;;;;;;;;21.30;99.90;;;;;;5014902;28;20365;-77
2023/05/05 14:16:28;;;;;;;;;;;21.10;99.90;;;;;;5029710;28;20001;-77
2023/05/05 14:18:55;;;;;;;;;;;;;;;;;;5038532;28;19945;-78
2023/05/05 14:21:22;;;;;;;;;;;;;;;;;;5037013;28;19928;-81
2023/05/05 14:23:49;;;;;;;;;;;20.90;99.90;;;;;;5019493;28;20056;-78
2023/05/05 14:26:16;;;;;;;;;;;;;;;;;;5015835;28;19952;-78
2023/05/05 14:28:44;;;;;;;;;;;;;;;;;;5017290;28;19925;-77
2023/05/05 14:31:11;;;;;;;;;;;;;;;;;;5034112;28;19925;-76
2023/05/05 14:33:38;;;;;;;;;;;;;;;;;;5017558;28;19959;-78
2023/05/05 14:36:05;;;;;;;;;;;;;;;;;;5009099;28;19974;-79
2023/05/05 14:38:32;;;;;;;;;;;;;;;;;;5015406;28;20053;-77
2023/05/05 14:40:59;;;;;;;;;;;;;;;;;;5008322;28;19933;-76
2023/05/05 14:43:27;;;;;;;;;;;;;;;;;;5007660;28;19952;-76
2023/05/05 14:45:54;;;;;;;;;;;;;;;;;;5015995;28;19931;-77
2023/05/05 14:48:21;;;;;;;;;;;;;;;;;;5026052;28;19933;-77
2023/05/05 14:50:48;;;;;;;;;;;;;;;;;;5025706;28;20032;-78
2023/05/05 14:53:15;;;;;;;;;;;;;;;;;;5026488;28;19925;-75
2023/05/05 14:55:43;;;;;;;;;;;;;;;;;;5026773;28;19929;-75
2023/05/05 14:58:10;;;;;;;;;;;;;;;;;;5028819;28;19944;-76
2023/05/05 15:00:37;;;;;;;;;;;;;;;;;;5026016;28;19939;-76
2023/05/05 15:03:04;;;;;;;;;;;;;;;;;;5022341;28;19944;-76
2023/05/05 15:05:31;;;;;;;;;;;;;;;;;;5027737;28;20031;-75
2023/05/05 15:07:58;;;;;;;;;;;;;;;;;;5026917;28;20443;-76
2023/05/05 15:10:25;;;;;;;;;;;;;;;;;;5027255;28;19929;-76
2023/05/05 15:12:52;;;;;;;;;;;;;;;;;;5027226;28;19932;-76
2023/05/05 15:15:19;;;;;;;;;;;;;;;;;;5026838;28;19941;-76
2023/05/05 15:17:46;;;;;;;;;;;;;;;;;;5026420;28;19936;-76
2023/05/05 15:20:13;;;;;;;;;;;;;;;;;;5017697;28;19936;-75
2023/05/05 15:22:40;;;;;;;;;;;;;;;;;;5027591;28;20655;-75
2023/05/05 15:25:11;;;;;;;;;;;;;;;;;;5031135;28;19940;-75
2023/05/05 15:27:38;;;;;;;;;;;;;;;;;;5030016;28;19929;-76
2023/05/05 15:30:05;;;;;;;;;;;;;;;;;;5030451;28;19929;-75
2023/05/05 15:32:32;;;;;;;;;;;;;;;;;;5028002;28;20321;-77
2023/05/05 15:34:59;;;;;;;;;;;;;;;;;;5030537;28;20063;-77
2023/05/05 15:37:27;;;;;;;;;;;;;;;;;;5027691;28;20058;-76
2023/05/05 15:39:55;;;;;;;;;;;;;;;;;;5030004;28;19925;-77
2023/05/05 15:42:22;;;;;;;;;;;;;;;;;;5029619;28;19980;-79
2023/05/05 15:44:49;;;;;;;;;;;;;;;;;;5031100;28;19925;-77
2023/05/05 15:47:16;;;;;;;;;;;;;;;;;;5030357;28;20008;-76
2023/05/05 15:49:43;;;;;;;;;;;;;;;;;;5031107;28;19937;-77
2023/05/05 15:52:11;;;;;;;;;;;17.00;99.90;;;;;;5041826;28;19961;-78
2023/05/05 15:54:38;;;;;;;;;;;16.90;99.90;;;;;;5045538;28;19954;-77
2023/05/05 15:57:05;;;;;;;;;;;;;;;;;;5046220;28;19933;-75
2023/05/05 15:59:32;;;;;;;;;;;;;;;;;;5039754;28;19929;-75
2023/05/05 16:01:59;;;;;;;;;;;;;;;;;;5028592;28;20021;-76
2023/05/05 16:04:26;;;;;;;;;;;;;;;;;;5028896;28;20366;-75
2023/05/05 16:06:54;;;;;;;;;;;;;;;;;;5024341;28;19936;-75
2023/05/05 16:09:21;;;;;;;;;;;;;;;;;;5028319;28;19929;-75
2023/05/05 16:11:48;;;;;;;;;;;;;;;;;;5027033;28;19936;-75
2023/05/05 16:16:56;;;;;;;;;;;;;;;;;;5301643;22;19925;-75
2023/05/05 16:19:25;;;;;;;;;;;;;;;;;;5025390;28;19969;-75
2023/05/05 16:21:52;;;;;;;;;;;;;;;;;;5009342;28;19965;-75
2023/05/05 16:24:19;;;;;;;;;;;;;;;;;;5006814;28;19926;-77
2023/05/05 16:26:46;;;;;;;;;;;;;;;;;;5005748;28;19940;-75
2023/05/05 16:29:13;;;;;;;;;;;;;;;;;;5010997;28;19929;-75
2023/05/05 16:31:40;;;;;;;;;;;;;;;;;;5007993;28;20318;-75
2023/05/05 16:34:07;;;;;;;;;;;;;;;;;;5008025;28;19933;-75
2023/05/05 16:36:34;;;;;;;;;;;;;;;;;;5008993;28;20307;-75